Time;durP1;ratioP1;P1;durP2;ratioP2;P2;SDS_P1;SDS_P2;PMS_P1;PMS_P2;Temp;Humidity;BMP_temperature;BMP_pressure;BME280_temperature;BME280_humidity;BME280_pressure;Samples;Min_cycle;Max_cycle;Signal;HPM_P1;HPM_P2
2023/01/25 00:00:45;;;;;;;;;;;;;;;2.75;75.77;101242.44;4989510;28;19925;-82
2023/01/25 00:03:11;;;;;;;;;;;;;;;2.87;75.44;101242.97;4988575;28;19945;-81
2023/01/25 00:05:36;;;;;;;;;;;;;;;2.75;75.67;101242.44;4988139;28;19925;-80
2023/01/25 00:08:01;;;;;;;;;;;;;;;2.62;74.73;101244.56;4988508;28;19918;-81
2023/01/25 00:10:27;;;;;;;;;;;;;;;2.55;74.96;101247.75;4988310;28;19928;-81
2023/01/25 00:12:52;;;;;;;;;;;;;;;2.63;75.33;101245.47;4988400;28;19928;-82
2023/01/25 00:15:17;;;;;;;;;;;;;;;2.74;75.88;101249.41;4988454;28;19928;-82
2023/01/25 00:17:43;;;;;;;;;;;;;;;2.41;75.47;101241.94;4987950;28;19932;-81
2023/01/25 00:20:08;;;;;;;;;;;;;;;2.72;75.71;101252.75;4987436;28;19922;-80
2023/01/25 00:22:34;;;;;;;;;;;;;;;2.78;75.17;101253.91;4980378;28;19925;-81
2023/01/25 00:24:59;;;;;;;;;;;;;;;2.82;75.23;101255.81;4988256;28;19922;-81
2023/01/25 00:27:24;;;;;;;;;;;;;;;2.80;75.52;101256.59;4987489;28;19924;-81
2023/01/25 00:29:50;;;;;;;;;;;;;;;2.61;75.81;101254.91;4987189;28;19965;-82
2023/01/25 00:32:15;;;;;;;;;;;;;;;2.46;76.77;101250.84;4988441;28;20036;-82
2023/01/25 00:34:50;;;;;;;;;;;;;;;2.27;77.33;101248.25;4987074;28;19925;-81
2023/01/25 00:37:33;;;;;;;;;;;;;;;2.15;78.07;101253.84;4987290;28;19926;-81
2023/01/25 00:39:59;;;;;;;;;;;;;;;2.25;78.71;101253.38;4988116;28;19925;-80
2023/01/25 00:42:24;;;;;;;;;;;;;;;2.51;78.46;101251.03;4987457;28;19925;-81
2023/01/25 00:44:49;;;;;;;;;;;;;;;2.53;77.94;101248.50;4969312;28;19984;-81
2023/01/25 00:47:15;;;;;;;;;;;;;;;2.53;78.21;101251.97;4968423;28;19929;-81
2023/01/25 00:49:41;;;;;;;;;;;;;;;2.47;78.70;101256.94;4967936;28;20415;-80
2023/01/25 00:52:07;;;;;;;;;;;;;;;2.27;79.34;101248.25;4979017;28;20029;-80
2023/01/25 00:54:32;;;;;;;;;;;;;;;2.24;79.90;101253.31;4987856;28;19977;-80
2023/01/25 00:56:58;;;;;;;;;;;;;;;2.28;79.62;101250.91;4987408;28;19945;-80
2023/01/25 00:59:23;;;;;;;;;;;;;;;2.20;79.47;101254.91;4988459;28;19930;-79
2023/01/25 01:01:49;;;;;;;;;;;;;;;2.02;80.01;101256.69;4987191;28;19929;-79
2023/01/25 01:04:14;;;;;;;;;;;;;;;2.10;80.66;101257.94;4970313;28;19921;-80
2023/01/25 01:06:40;;;;;;;;;;;;;;;1.97;79.99;101254.78;4987568;28;20327;-79
2023/01/25 01:09:07;;;;;;;;;;;;;;;1.99;80.20;101256.56;4987127;28;20020;-80
2023/01/25 01:11:32;;;;;;;;;;;;;;;2.19;80.21;101241.81;4986836;28;19926;-81
2023/01/25 01:13:58;;;;;;;;;;;;;;;2.28;79.89;101245.72;4987822;28;19922;-80
2023/01/25 01:16:24;;;;;;;;;;;;;;;2.39;79.41;101245.28;4987491;28;19921;-80
2023/01/25 01:18:49;;;;;;;;;;;;;;;2.53;79.07;101245.88;4987480;28;19918;-79
2023/01/25 01:21:15;;;;;;;;;;;;;;;2.34;79.40;101239.88;4988114;28;20119;-79
2023/01/25 01:23:40;;;;;;;;;;;;;;;2.03;79.04;101240.28;4986898;28;20012;-79
2023/01/25 01:26:07;;;;;;;;;;;;;;;2.27;79.26;101236.16;4987406;28;19965;-79
2023/01/25 01:28:33;;;;;;;;;;;;;;;2.28;79.44;101227.47;4978730;28;19925;-78
2023/01/25 01:30:59;;;;;;;;;;;;;;;2.21;79.62;101228.06;4968114;28;20141;-79
2023/01/25 01:33:24;;;;;;;;;;;;;;;2.23;78.93;101226.41;4974593;28;19926;-80
2023/01/25 01:35:49;;;;;;;;;;;;;;;2.39;78.71;101227.94;4974980;28;19949;-80
2023/01/25 01:38:15;;;;;;;;;;;;;;;2.23;78.55;101220.31;4966912;28;19922;-79
2023/01/25 01:40:43;;;;;;;;;;;;;;;2.20;79.29;101225.41;4984053;28;20068;-79
2023/01/25 01:43:15;;;;;;;;;;;;;;;2.30;78.92;101228.47;4987427;28;20397;-81
2023/01/25 01:45:48;;;;;;;;;;;;;;;2.54;78.03;101221.63;4969953;28;20396;-80
2023/01/25 01:48:23;;;;;;;;;;;;;;;2.33;78.17;101215.56;4969048;28;19984;-80
2023/01/25 01:50:51;;;;;;;;;;;;;;;2.28;78.27;101222.28;4987029;28;20739;-78
2023/01/25 01:53:16;;;;;;;;;;;;;;;2.25;78.28;101218.66;4987251;28;20350;-80
2023/01/25 01:55:42;;;;;;;;;;;;;;;2.41;78.02;101222.81;4987320;28;19922;-79
2023/01/25 01:58:07;;;;;;;;;;;;;;;2.46;77.59;101222.19;4986822;28;20470;-79
2023/01/25 02:00:35;;;;;;;;;;;;;;;2.56;77.01;101220.84;4985824;28;20350;-79
2023/01/25 02:03:00;;;;;;;;;;;;;;;2.71;76.56;101217.13;4986887;28;19930;-79
2023/01/25 02:05:39;;;;;;;;;;;;;;;2.68;76.36;101216.13;4986830;28;19928;-79
2023/01/25 02:08:06;;;;;;;;;;;;;;;2.68;76.87;101223.97;4987074;28;19920;-79
2023/01/25 02:10:32;;;;;;;;;;;;;;;2.60;75.89;101220.16;4989534;28;19922;-79
2023/01/25 02:12:57;;;;;;;;;;;;;;;2.41;76.22;101223.72;4990552;28;19925;-79
2023/01/25 02:15:26;;;;;;;;;;;;;;;2.42;76.31;101215.06;4990693;28;19922;-80
2023/01/25 02:17:52;;;;;;;;;;;;;;;2.74;75.39;101215.50;4991338;28;19928;-79
2023/01/25 02:20:21;;;;;;;;;;;;;;;2.81;75.15;101211.44;4989863;28;20016;-79
2023/01/25 02:22:49;;;;;;;;;;;;;;;2.65;75.53;101208.19;4989761;28;19922;-79
2023/01/25 02:25:15;;;;;;;;;;;;;;;2.63;75.41;101206.38;4990198;28;20304;-79
2023/01/25 02:27:44;;;;;;;;;;;;;;;2.74;74.67;101214.63;4977992;28;19973;-80
2023/01/25 02:30:10;;;;;;;;;;;;;;;2.53;nan;101210.28;4970984;28;19957;-80
2023/01/25 02:32:35;;;;;;;;;;;;;;;2.64;75.05;101210.75;4970700;28;19969;-79
2023/01/25 02:35:01;;;;;;;;;;;;;;;2.44;74.93;101210.81;4988885;28;19933;-79
2023/01/25 02:37:26;;;;;;;;;;;;;;;2.32;75.12;101211.19;4989871;28;19925;-78
2023/01/25 02:39:51;;;;;;;;;;;;;;;2.45;75.59;101206.50;4990226;28;19918;-80
2023/01/25 02:42:17;;;;;;;;;;;;;;;2.36;75.20;101208.69;4990036;28;19944;-79
2023/01/25 02:44:43;;;;;;;;;;;;;;;2.47;75.12;101215.25;4972751;28;20415;-80
2023/01/25 02:47:08;;;;;;;;;;;;;;;2.39;74.77;101219.25;4990228;28;19921;-79
2023/01/25 02:49:34;;;;;;;;;;;;;;;2.39;74.80;101216.66;4990338;28;20339;-79
2023/01/25 02:51:59;;;;;;;;;;;;;;;2.32;74.08;101213.78;4972269;28;20366;-79
2023/01/25 02:54:25;;;;;;;;;;;;;;;2.33;73.86;101215.56;4989329;28;19922;-79
2023/01/25 02:56:51;;;;;;;;;;;;;;;2.22;74.55;101206.38;4989827;28;19968;-78
2023/01/25 02:59:17;;;;;;;;;;;;;;;2.31;74.22;101208.50;4973027;28;19992;-79
2023/01/25 03:01:43;;;;;;;;;;;;;;;2.24;74.83;101196.94;4990400;28;19921;-79
2023/01/25 03:04:09;;;;;;;;;;;;;;;2.18;74.82;101196.69;4989327;28;20367;-79
2023/01/25 03:06:34;;;;;;;;;;;;;;;2.24;74.21;101209.97;4989596;28;19977;-80
2023/01/25 03:09:00;;;;;;;;;;;;;;;2.36;73.95;101209.59;4989546;28;19925;-79
2023/01/25 03:11:25;;;;;;;;;;;;;;;2.26;73.63;101213.53;4989652;28;19926;-79
2023/01/25 03:13:51;;;;;;;;;;;;;;;2.42;74.40;101211.56;4997873;28;19933;-79
2023/01/25 03:16:16;;;;;;;;;;;;;;;2.28;74.37;101211.84;4989882;28;19943;-79
2023/01/25 03:18:41;;;;;;;;;;;;;;;2.25;74.27;101213.44;4989064;28;19926;-81
2023/01/25 03:21:09;;;;;;;;;;;;;;;2.31;74.35;101206.78;4989587;28;19922;-81
2023/01/25 03:23:34;;;;;;;;;;;;;;;2.46;74.20;101203.94;4989910;28;19921;-79
2023/01/25 03:26:05;;;;;;;;;;;;;;;2.45;74.10;101198.66;4985346;28;19929;-79
2023/01/25 03:28:31;;;;;;;;;;;;;;;2.26;73.39;101203.09;4979639;28;19982;-79
2023/01/25 03:30:56;;;;;;;;;;;;;;;2.24;73.28;101193.44;4989313;28;19926;-80
2023/01/25 03:33:21;;;;;;;;;;;;;;;2.42;73.39;101195.94;4989166;28;20400;-80
2023/01/25 03:35:52;;;;;;;;;;;;;;;2.51;73.49;101198.94;4988424;28;20301;-79
2023/01/25 03:38:19;;;;;;;;;;;;;;;2.26;73.31;101197.00;4989010;28;20028;-79
2023/01/25 03:40:44;;;;;;;;;;;;;;;2.28;73.93;101201.44;4989545;28;19933;-79
2023/01/25 03:43:10;;;;;;;;;;;;;;;2.12;73.75;101201.63;4989712;28;19921;-79
2023/01/25 03:45:35;;;;;;;;;;;;;;;2.20;73.48;101204.56;4988966;28;20144;-79
2023/01/25 03:48:00;;;;;;;;;;;;;;;2.29;72.67;101211.03;4989247;28;19922;-78
2023/01/25 03:50:25;;;;;;;;;;;;;;;2.20;72.81;101212.38;4988497;28;20335;-79
2023/01/25 03:53:08;;;;;;;;;;;;;;;2.40;72.79;101206.28;4988729;28;19929;-79
2023/01/25 03:55:34;;;;;;;;;;;;;;;2.44;72.88;101212.50;4988420;28;20327;-79
2023/01/25 03:57:59;;;;;;;;;;;;;;;2.33;73.03;101210.38;4988805;28;19922;-79
2023/01/25 04:00:24;;;;;;;;;;;;;;;2.51;73.10;101214.56;4988484;28;19918;-79
2023/01/25 04:02:50;;;;;;;;;;;;;;;2.38;72.41;101220.06;4988786;28;19933;-79
2023/01/25 04:05:15;;;;;;;;;;;;;;;2.19;72.99;101219.28;4988396;28;20356;-78
2023/01/25 04:07:40;;;;;;;;;;;;;;;2.38;73.16;101220.06;4987905;28;19922;-80
2023/01/25 04:10:06;;;;;;;;;;;;;;;2.37;73.65;101220.91;4988250;28;19958;-79
2023/01/25 04:12:31;;;;;;;;;;;;;;;2.01;74.36;101219.38;4988296;28;19925;-79
2023/01/25 04:14:57;;;;;;;;;;;;;;;1.93;75.20;101229.47;4988660;28;20026;-81
2023/01/25 04:17:22;;;;;;;;;;;;;;;1.90;75.92;101223.19;4987259;28;19918;-80
2023/01/25 04:19:48;;;;;;;;;;;;;;;1.86;76.22;101216.09;4987523;28;19925;-80
2023/01/25 04:22:14;;;;;;;;;;;;;;;1.88;76.38;101224.84;4987185;28;19929;-79
2023/01/25 04:24:39;;;;;;;;;;;;;;;1.93;76.73;101219.03;4988124;28;19941;-79
2023/01/25 04:27:05;;;;;;;;;;;;;;;1.83;77.10;101218.56;4989955;28;19926;-79
2023/01/25 04:29:30;;;;;;;;;;;;;;;1.98;76.71;101216.66;4987241;28;19925;-79
2023/01/25 04:31:55;;;;;;;;;;;;;;;1.85;76.44;101222.13;4988136;28;19921;-79
2023/01/25 04:34:20;;;;;;;;;;;;;;;1.86;76.07;101226.50;4987783;28;19925;-79
2023/01/25 04:36:46;;;;;;;;;;;;;;;1.87;75.63;101228.25;4986991;28;20016;-78
2023/01/25 04:39:11;;;;;;;;;;;;;;;1.87;74.90;101231.78;4988003;28;19992;-78
2023/01/25 04:41:37;;;;;;;;;;;;;;;1.93;75.28;101229.47;4986849;28;20288;-80
2023/01/25 04:44:02;;;;;;;;;;;;;;;1.91;73.91;101228.47;4986408;28;19929;-79
2023/01/25 04:46:27;;;;;;;;;;;;;;;1.88;73.97;101232.66;4988366;28;19922;-79
2023/01/25 04:48:53;;;;;;;;;;;;;;;1.84;73.95;101225.53;4987701;28;20623;-77
2023/01/25 04:51:18;;;;;;;;;;;;;;;1.86;73.82;101235.19;4980478;28;20315;-78
2023/01/25 04:53:43;;;;;;;;;;;;;;;1.79;74.22;101228.84;4986206;28;19977;-79
2023/01/25 04:56:09;;;;;;;;;;;;;;;1.79;74.25;101228.84;4985384;28;20007;-77
2023/01/25 04:58:34;;;;;;;;;;;;;;;1.88;74.22;101230.06;4983929;28;19980;-77
2023/01/25 05:01:01;;;;;;;;;;;;;;;1.90;73.74;101234.53;4978575;28;19926;-80
2023/01/25 05:03:27;;;;;;;;;;;;;;;1.87;74.17;101231.78;4982664;28;19922;-77
2023/01/25 05:05:52;;;;;;;;;;;;;;;2.02;73.47;101230.66;4985484;28;20300;-79
2023/01/25 05:08:17;;;;;;;;;;;;;;;1.93;73.82;101225.94;4978812;28;19918;-78
2023/01/25 05:10:43;;;;;;;;;;;;;;;1.98;73.58;101227.06;4968791;28;19918;-77
2023/01/25 05:13:08;;;;;;;;;;;;;;;2.22;73.64;101235.03;4979010;28;19922;-77
2023/01/25 05:15:34;;;;;;;;;;;;;;;2.07;73.09;101230.06;4987646;28;20576;-78
2023/01/25 05:17:59;;;;;;;;;;;;;;;2.10;73.43;101237.09;4981040;28;20010;-77
2023/01/25 05:20:24;;;;;;;;;;;;;;;2.08;72.65;101241.34;4984753;28;19930;-76
2023/01/25 05:22:50;;;;;;;;;;;;;;;2.00;72.81;101238.41;4982732;28;19922;-77
2023/01/25 05:27:59;;;;;;;;;;;;;;;2.07;72.57;101242.16;4982283;28;20025;-80
2023/01/25 05:30:24;;;;;;;;;;;;;;;2.08;72.11;101238.75;4987132;28;20455;-79
2023/01/25 05:32:50;;;;;;;;;;;;;;;2.08;72.10;101238.75;4986700;28;20400;-79
2023/01/25 05:35:15;;;;;;;;;;;;;;;2.14;71.32;101247.72;4986896;28;19932;-80
2023/01/25 05:37:40;;;;;;;;;;;;;;;2.30;71.06;101244.09;4986929;28;20383;-81
2023/01/25 05:40:07;;;;;;;;;;;;;;;2.14;70.78;101239.91;4987503;28;19936;-80
2023/01/25 05:42:32;;;;;;;;;;;;;;;2.20;70.86;101244.50;4986571;28;20396;-79
2023/01/25 05:44:57;;;;;;;;;;;;;;;2.19;70.84;101247.03;4984166;28;19937;-80
2023/01/25 05:47:23;;;;;;;;;;;;;;;2.23;70.79;101242.03;4980131;28;19942;-81
2023/01/25 05:49:48;;;;;;;;;;;;;;;2.22;70.83;101244.56;4971306;28;19918;-79
2023/01/25 05:52:14;;;;;;;;;;;;;;;2.34;70.27;101237.28;4972227;28;19922;-81
2023/01/25 05:54:40;;;;;;;;;;;;;;;2.22;69.93;101250.66;4983194;28;20301;-79
2023/01/25 05:57:05;;;;;;;;;;;;;;;2.13;69.88;101255.47;4970508;28;19929;-80
2023/01/25 05:59:30;;;;;;;;;;;;;;;2.13;70.43;101252.84;4971176;28;19944;-79
2023/01/25 06:01:56;;;;;;;;;;;;;;;1.92;69.69;101253.69;4979760;28;20020;-81
2023/01/25 06:04:21;;;;;;;;;;;;;;;2.08;70.12;101255.25;4985241;28;20406;-80
2023/01/25 06:06:47;;;;;;;;;;;;;;;2.18;69.71;101248.75;4982640;28;19926;-80
2023/01/25 06:09:12;;;;;;;;;;;;;;;2.45;70.00;101255.97;4989933;28;20820;-79
2023/01/25 06:11:37;;;;;;;;;;;;;;;2.47;69.37;101254.31;4978213;28;19961;-79
2023/01/25 06:14:03;;;;;;;;;;;;;;;2.29;69.35;101252.72;4973990;28;19918;-79
2023/01/25 06:16:28;;;;;;;;;;;;;;;2.20;69.12;101252.31;4972094;28;19928;-82
2023/01/25 06:18:53;;;;;;;;;;;;;;;2.26;70.04;101244.78;4986721;28;20331;-81
2023/01/25 06:21:19;;;;;;;;;;;;;;;2.31;69.29;101253.66;4982131;28;19932;-79
2023/01/25 06:23:44;;;;;;;;;;;;;;;2.36;69.44;101255.59;4977386;28;19926;-80
2023/01/25 06:26:11;;;;;;;;;;;;;;;2.45;69.47;101255.97;4973711;28;19930;-79
2023/01/25 06:28:37;;;;;;;;;;;;;;;2.25;69.41;101248.19;4986660;28;20803;-78
2023/01/25 06:31:07;;;;;;;;;;;;;;;2.39;69.90;101247.91;4988670;28;19926;-78
2023/01/25 06:33:32;;;;;;;;;;;;;;;2.26;70.34;101249.97;4981032;28;19944;-79
2023/01/25 06:35:58;;;;;;;;;;;;;;;2.17;70.46;101256.50;4981159;28;20416;-78
2023/01/25 06:38:24;;;;;;;;;;;;;;;2.18;70.70;101258.25;4981515;28;20438;-78
2023/01/25 06:40:49;;;;;;;;;;;;;;;2.21;70.04;101263.59;4970961;28;19961;-79
2023/01/25 06:43:14;;;;;;;;;;;;;;;2.15;70.54;101256.44;4981555;28;19969;-78
2023/01/25 06:45:40;;;;;;;;;;;;;;;2.25;69.82;101258.59;4971734;28;20324;-79
2023/01/25 06:48:05;;;;;;;;;;;;;;;2.09;70.00;101259.66;4981750;28;20320;-78
2023/01/25 06:50:31;;;;;;;;;;;;;;;2.11;70.51;101262.31;4970569;28;20016;-79
2023/01/25 06:52:56;;;;;;;;;;;;;;;1.82;70.27;101228.06;4981920;28;19926;-81
2023/01/25 06:55:21;;;;;;;;;;;;;;;1.97;70.80;101254.78;4970696;28;19922;-80
2023/01/25 06:57:47;;;;;;;;;;;;;;;1.89;70.16;101250.06;4981126;28;19929;-79
2023/01/25 07:00:13;;;;;;;;;;;;;;;1.79;70.59;101252.25;4969673;28;19918;-79
2023/01/25 07:02:39;;;;;;;;;;;;;;;1.84;70.99;101251.56;4980340;28;19921;-78
2023/01/25 07:05:04;;;;;;;;;;;;;;;2.15;70.94;101246.91;4971545;28;19930;-79
2023/01/25 07:07:30;;;;;;;;;;;;;;;1.88;70.56;101254.38;4979026;28;20323;-78
2023/01/25 07:09:55;;;;;;;;;;;;;;;2.00;70.46;101253.16;4973209;28;19922;-80
2023/01/25 07:12:21;;;;;;;;;;;;;;;2.02;70.52;101249.78;4977700;28;19924;-80
2023/01/25 07:14:48;;;;;;;;;;;;;;;2.17;70.92;101253.91;4974215;28;19929;-78
2023/01/25 07:17:13;;;;;;;;;;;;;;;2.42;70.66;101261.06;4976725;28;19921;-78
2023/01/25 07:19:39;;;;;;;;;;;;;;;2.53;70.19;101259.78;4974685;28;20435;-79
2023/01/25 07:22:04;;;;;;;;;;;;;;;2.52;70.25;101260.63;4975086;28;20061;-79
2023/01/25 07:24:29;;;;;;;;;;;;;;;2.58;69.86;101260.91;4958810;28;19918;-79
2023/01/25 07:26:55;;;;;;;;;;;;;;;2.49;69.23;101261.38;4973704;28;19918;-77
2023/01/25 07:29:20;;;;;;;;;;;;;;;2.30;69.29;101254.50;4977339;28;20420;-78
2023/01/25 07:31:46;;;;;;;;;;;;;;;2.19;69.39;101267.88;4972218;28;19996;-78
2023/01/25 07:34:14;;;;;;;;;;;;;;;2.42;69.56;101263.66;4978448;28;19933;-78
2023/01/25 07:36:40;;;;;;;;;;;;;;;2.46;69.35;101268.19;4972297;28;19941;-79
2023/01/25 07:39:08;;;;;;;;;;;;;;;2.42;67.89;101271.47;4979055;28;19922;-78
2023/01/25 07:41:33;;;;;;;;;;;;;;;2.21;67.26;101272.34;4969739;28;19922;-78
2023/01/25 07:43:58;;;;;;;;;;;;;;;2.35;68.73;101264.22;4970364;28;19929;-81
2023/01/25 07:46:24;;;;;;;;;;;;;;;2.36;68.38;101268.59;4969538;28;19922;-79
2023/01/25 07:48:50;;;;;;;;;;;;;;;2.38;67.64;101275.66;4969747;28;19922;-79
2023/01/25 07:51:22;;;;;;;;;;;;;;;2.33;67.56;101270.25;4969693;28;19922;-79
2023/01/25 07:53:55;;;;;;;;;;;;;;;2.50;68.60;101272.69;4968460;28;19922;-79
2023/01/25 07:56:22;;;;;;;;;;;;;;;2.71;67.24;101277.94;4969508;28;19929;-81
2023/01/25 07:58:47;;;;;;;;;;;;;;;2.38;67.65;101274.75;4969714;28;19928;-81
2023/01/25 08:01:14;;;;;;;;;;;;;;;2.54;68.39;101274.59;4969565;28;20400;-81
2023/01/25 08:03:40;;;;;;;;;;;;;;;2.63;67.61;101282.81;4969352;28;19919;-79
2023/01/25 08:06:06;;;;;;;;;;;;;;;2.14;67.63;101285.88;4969452;28;20348;-80
2023/01/25 08:08:35;;;;;;;;;;;;;;;2.30;67.72;101297.88;4968575;28;20009;-79
2023/01/25 08:11:06;;;;;;;;;;;;;;;2.54;67.60;101287.63;4969542;28;19922;-79
2023/01/25 08:13:31;;;;;;;;;;;;;;;2.37;68.29;101288.63;4969016;28;19922;-79
2023/01/25 08:15:57;;;;;;;;;;;;;;;2.38;68.50;101293.00;4969151;28;19922;-79
2023/01/25 08:18:22;;;;;;;;;;;;;;;2.20;67.51;101291.38;4968924;28;20001;-79
2023/01/25 08:20:48;;;;;;;;;;;;;;;2.17;68.12;101288.63;4969392;28;20324;-78
2023/01/25 08:23:13;;;;;;;;;;;;;;;2.13;68.19;101282.41;4968869;28;20011;-79
2023/01/25 08:25:39;;;;;;;;;;;;;;;2.14;68.08;101288.50;4968903;28;19922;-79
2023/01/25 08:28:04;;;;;;;;;;;;;;;2.26;68.45;101288.16;4968674;28;19925;-78
2023/01/25 08:30:30;;;;;;;;;;;;;;;2.11;67.87;101283.16;4968713;28;19922;-77
2023/01/25 08:32:56;;;;;;;;;;;;;;;2.16;69.12;101284.22;4968883;28;20420;-78
2023/01/25 08:35:21;;;;;;;;;;;;;;;2.30;68.33;101290.97;4968236;28;20004;-78
2023/01/25 08:37:47;;;;;;;;;;;;;;;2.36;68.43;101279.91;4968933;28;19985;-78
2023/01/25 08:40:15;;;;;;;;;;;;;;;2.26;68.06;101278.63;4983737;28;19930;-78
2023/01/25 08:42:42;;;;;;;;;;;;;;;2.27;67.87;101283.03;4968598;28;19918;-78
2023/01/25 08:45:08;;;;;;;;;;;;;;;2.47;68.38;101285.56;4968533;28;19929;-80
2023/01/25 08:47:33;;;;;;;;;;;;;;;2.46;68.30;101276.00;4968992;28;19945;-79
2023/01/25 08:49:58;;;;;;;;;;;;;;;2.49;68.72;101273.53;4968763;28;19918;-78
2023/01/25 08:52:24;;;;;;;;;;;;;;;2.34;68.49;101273.75;4968986;28;19922;-79
2023/01/25 08:54:49;;;;;;;;;;;;;;;2.48;68.73;101279.56;4968585;28;19984;-79
2023/01/25 08:57:14;;;;;;;;;;;;;;;2.40;67.88;101275.75;4968636;28;20054;-79
2023/01/25 08:59:40;;;;;;;;;;;;;;;2.55;68.39;101273.78;4968870;28;19922;-78
2023/01/25 09:02:05;;;;;;;;;;;;;;;2.64;67.22;101271.59;4968289;28;20024;-79
2023/01/25 09:04:31;;;;;;;;;;;;;;;2.43;67.50;101270.66;4968454;28;20005;-78
2023/01/25 09:06:56;;;;;;;;;;;;;;;2.48;67.46;101269.13;4968733;28;19933;-78
2023/01/25 09:09:23;;;;;;;;;;;;;;;2.44;66.89;101273.34;4968406;28;19922;-77
2023/01/25 09:11:49;;;;;;;;;;;;;;;2.27;67.49;101266.47;4968225;28;20709;-79
2023/01/25 09:14:14;;;;;;;;;;;;;;;2.86;67.99;101267.28;4968427;28;20027;-79
2023/01/25 09:16:40;;;;;;;;;;;;;;;2.75;67.10;101261.59;4967562;28;19928;-82
2023/01/25 09:19:05;;;;;;;;;;;;;;;2.71;67.11;101248.38;4967959;28;20371;-80
2023/01/25 09:21:31;;;;;;;;;;;;;;;2.91;67.77;101238.78;4968993;28;19941;-83
2023/01/25 09:23:57;;;;;;;;;;;;;;;3.03;67.40;101240.16;4968229;28;19968;-78
2023/01/25 09:26:22;;;;;;;;;;;;;;;3.00;67.20;101247.84;4967084;28;20033;-79
2023/01/25 09:28:49;;;;;;;;;;;;;;;3.14;67.25;101247.53;4968407;28;19918;-79
2023/01/25 09:31:15;;;;;;;;;;;;;;;3.14;65.28;101244.94;4966768;28;20371;-80
2023/01/25 09:33:41;;;;;;;;;;;;;;;3.05;65.55;101240.22;4967806;28;19922;-79
2023/01/25 09:36:06;;;;;;;;;;;;;;;2.76;64.99;101223.41;4968252;28;19945;-78
2023/01/25 09:38:32;;;;;;;;;;;;;;;2.81;66.80;101227.97;4967700;28;20442;-80
2023/01/25 09:41:03;;;;;;;;;;;;;;;3.07;66.52;101222.03;4968748;28;20342;-80
2023/01/25 09:43:28;;;;;;;;;;;;;;;3.18;64.99;101219.03;4967800;28;19922;-80
2023/01/25 09:45:54;;;;;;;;;;;;;;;3.08;65.03;101211.66;4966934;28;19945;-78
2023/01/25 09:48:37;;;;;;;;;;;;;;;3.02;65.32;101214.03;4968208;28;20411;-80
2023/01/25 09:51:09;;;;;;;;;;;;;;;2.88;65.05;101210.88;4967933;28;20012;-81
2023/01/25 09:53:37;;;;;;;;;;;;;;;3.15;65.26;101215.38;4967695;28;19939;-79
2023/01/25 09:56:08;;;;;;;;;;;;;;;3.42;64.19;101205.16;4967643;28;19918;-80
2023/01/25 09:58:36;;;;;;;;;;;;;;;3.69;64.68;101212.22;4967715;28;19929;-81
2023/01/25 10:01:08;;;;;;;;;;;;;;;3.44;63.52;101206.09;4968198;28;19918;-80
2023/01/25 10:03:47;;;;;;;;;;;;;;;3.45;64.27;101202.66;4967960;28;20009;-80
2023/01/25 10:06:13;;;;;;;;;;;;;;;3.42;65.68;101197.31;4983176;28;19988;-83
2023/01/25 10:08:48;;;;;;;;;;;;;;;3.04;64.71;101197.63;4987055;28;19918;-82
2023/01/25 10:11:16;;;;;;;;;;;;;;;3.20;64.67;101186.06;4980981;28;20061;-80
2023/01/25 10:13:42;;;;;;;;;;;;;;;3.15;65.96;101191.91;4978028;28;19924;-78
2023/01/25 10:16:13;;;;;;;;;;;;;;;3.09;65.56;101181.25;4974490;28;19918;-79
2023/01/25 10:19:01;;;;;;;;;;;;;;;3.32;65.28;101180.44;4970451;28;20470;-80
2023/01/25 10:21:44;;;;;;;;;;;;;;;3.50;65.96;101167.19;4981352;28;20443;-79
2023/01/25 10:24:24;;;;;;;;;;;;;;;3.61;65.12;101171.91;4978475;28;19926;-81
2023/01/25 10:26:55;;;;;;;;;;;;;;;3.50;64.64;101166.31;4981085;28;19928;-80
2023/01/25 10:29:21;;;;;;;;;;;;;;;3.45;64.62;101157.44;4982686;28;19927;-81
2023/01/25 10:31:49;;;;;;;;;;;;;;;3.63;64.73;101152.88;4972191;28;19928;-81
2023/01/25 10:34:17;;;;;;;;;;;;;;;3.44;64.14;101153.91;4987357;28;20012;-83
2023/01/25 10:36:45;;;;;;;;;;;;;;;3.32;65.04;101145.63;4982470;28;19922;-80
2023/01/25 10:39:10;;;;;;;;;;;;;;;3.22;65.16;101147.88;4973098;28;20327;-80
2023/01/25 10:41:41;;;;;;;;;;;;;;;3.44;65.12;101146.09;4977183;28;19922;-81
2023/01/25 10:44:25;;;;;;;;;;;;;;;3.62;66.26;101131.97;4986427;28;19925;-78
2023/01/25 10:46:56;;;;;;;;;;;;;;;3.75;66.15;101122.00;4989019;28;19918;-79
2023/01/25 10:49:21;;;;;;;;;;;;;;;3.68;66.91;101121.75;4989990;28;19926;-79
2023/01/25 10:51:47;;;;;;;;;;;;;;;3.48;66.04;101140.16;4988381;28;20458;-80
2023/01/25 10:54:13;;;;;;;;;;;;;;;3.58;66.25;101125.72;4990578;28;19957;-78
2023/01/25 10:56:39;;;;;;;;;;;;;;;3.78;65.57;101128.16;4989084;28;20312;-81
2023/01/25 10:59:07;;;;;;;;;;;;;;;3.78;65.47;101120.34;4989877;28;19928;-78
2023/01/25 11:01:34;;;;;;;;;;;;;;;3.55;66.01;101109.94;4990546;28;20306;-80
2023/01/25 11:04:00;;;;;;;;;;;;;;;3.72;66.22;101113.16;4990027;28;19965;-80
2023/01/25 11:06:30;;;;;;;;;;;;;;;3.86;64.57;101119.78;4989969;28;19967;-80
2023/01/25 11:08:55;;;;;;;;;;;;;;;4.11;64.26;101121.50;4989933;28;20045;-80
2023/01/25 11:11:26;;;;;;;;;;;;;;;4.02;63.87;101107.25;4989728;28;20079;-77
2023/01/25 11:13:53;;;;;;;;;;;;;;;4.20;63.73;101104.34;5004965;28;20751;-80
2023/01/25 11:16:22;;;;;;;;;;;;;;;4.57;64.22;101108.16;4988267;28;19926;-79
2023/01/25 11:18:52;;;;;;;;;;;;;;;4.70;62.72;101097.28;4989587;28;19987;-80
2023/01/25 11:21:21;;;;;;;;;;;;;;;4.92;62.69;101084.88;4990507;28;19949;-80
2023/01/25 11:24:07;;;;;;;;;;;;;;;4.88;63.17;101083.00;4989718;28;19921;-81
2023/01/25 11:26:35;;;;;;;;;;;;;;;5.00;60.88;101084.25;4979462;28;19922;-80
2023/01/25 11:29:10;;;;;;;;;;;;;;;4.83;61.04;101083.75;4989407;28;19918;-79
2023/01/25 11:31:35;;;;;;;;;;;;;;;4.68;62.65;101083.28;4989892;28;20028;-79
2023/01/25 11:34:00;;;;;;;;;;;;;;;4.93;62.51;101068.34;5003646;28;20001;-80
2023/01/25 11:36:38;;;;;;;;;;;;;;;4.96;61.96;101061.47;4989625;28;19918;-81
2023/01/25 11:39:03;;;;;;;;;;;;;;;4.68;61.15;101064.06;4989128;28;19922;-82
2023/01/25 11:41:35;;;;;;;;;;;;;;;4.26;61.05;101070.59;4988149;28;19968;-79
2023/01/25 11:44:09;;;;;;;;;;;;;;;4.65;61.63;101068.38;4988517;28;19921;-79
2023/01/25 11:46:50;;;;;;;;;;;;;;;4.74;60.63;101057.34;4988977;28;19922;-79
2023/01/25 11:49:26;;;;;;;;;;;;;;;4.46;61.36;101063.41;4989555;28;19918;-79
2023/01/25 11:51:51;;;;;;;;;;;;;;;4.29;61.72;101052.41;4989439;28;19987;-79
2023/01/25 11:54:27;;;;;;;;;;;;;;;4.13;60.95;101056.25;4988769;28;20392;-80
2023/01/25 11:56:58;;;;;;;;;;;;;;;4.13;61.71;101051.91;4989059;28;19925;-81
2023/01/25 11:59:29;;;;;;;;;;;;;;;4.16;61.73;101043.31;4988889;28;19929;-79
2023/01/25 12:01:55;;;;;;;;;;;;;;;4.46;62.04;101043.41;4989215;28;19980;-80
2023/01/25 12:04:39;;;;;;;;;;;;;;;4.94;61.33;101036.09;4988572;28;19918;-79
2023/01/25 12:07:07;;;;;;;;;;;;;;;4.74;61.13;101035.50;4989341;28;20012;-82
2023/01/25 12:09:38;;;;;;;;;;;;;;;4.36;61.61;101032.63;4989092;28;19922;-79
2023/01/25 12:12:07;;;;;;;;;;;;;;;4.04;61.60;101025.50;4989121;28;20450;-81
2023/01/25 12:14:48;;;;;;;;;;;;;;;4.28;61.46;101022.81;4988365;28;19918;-79
2023/01/25 12:17:31;;;;;;;;;;;;;;;4.31;60.88;101022.03;4988720;28;19957;-79
2023/01/25 12:19:57;;;;;;;;;;;;;;;4.49;62.26;101016.47;4989192;28;20012;-80
2023/01/25 12:22:22;;;;;;;;;;;;;;;4.54;62.03;101004.44;4988678;28;20012;-81
2023/01/25 12:24:47;;;;;;;;;;;;;;;4.30;61.92;101007.19;4988264;28;19914;-80
2023/01/25 12:27:31;;;;;;;;;;;;;;;4.44;61.44;101003.25;4988427;28;19917;-80
2023/01/25 12:30:03;;;;;;;;;;;;;;;4.48;62.36;101004.25;4988659;28;19922;-80
2023/01/25 12:32:40;;;;;;;;;;;;;;;4.65;61.94;100995.19;4988706;28;19918;-79
2023/01/25 12:35:14;;;;;;;;;;;;;;;4.36;62.07;101006.50;4988090;28;19921;-83
2023/01/25 12:37:42;;;;;;;;;;;;;;;4.62;62.12;100995.09;4988256;28;20012;-79
2023/01/25 12:40:13;;;;;;;;;;;;;;;4.52;59.55;101000.88;4988627;28;19917;-79
2023/01/25 12:42:45;;;;;;;;;;;;;;;4.57;60.10;100994.09;4988067;28;19917;-79
2023/01/25 12:45:37;;;;;;;;;;;;;;;4.75;60.67;100995.47;4988355;28;20289;-80
2023/01/25 12:48:15;;;;;;;;;;;;;;;4.92;60.72;100990.72;4985058;28;19924;-79
2023/01/25 12:50:44;;;;;;;;;;;;;;;4.86;60.91;101003.63;4988157;28;19922;-80